createdAt,value
2023-05-25T00:01:01.307Z,83.56
2023-05-25T00:01:55.291Z,83.49
2023-05-25T00:03:00.817Z,82.79
2023-05-25T00:04:04.871Z,82.97
2023-05-25T00:05:08.581Z,83.68
2023-05-25T00:06:12.809Z,84.60
2023-05-25T00:07:16.929Z,85.18
2023-05-25T00:08:20.769Z,86.14
2023-05-25T00:09:25.842Z,86.67
2023-05-25T00:10:29.659Z,86.97
2023-05-25T00:11:33.265Z,87.03
2023-05-25T00:12:39.190Z,87.79
2023-05-25T00:13:42.524Z,87.75
2023-05-25T00:14:46.601Z,88.14
2023-05-25T00:15:49.907Z,87.88
2023-05-25T00:16:53.969Z,88.18
2023-05-25T00:17:57.443Z,88.53
2023-05-25T00:19:02.078Z,88.51
2023-05-25T00:20:06.791Z,88.50
2023-05-25T00:21:12.643Z,88.56
2023-05-25T00:22:15.009Z,89.05
2023-05-25T00:23:17.991Z,89.12
2023-05-25T00:24:25.259Z,88.49
2023-05-25T00:25:29.279Z,88.21
2023-05-25T00:26:32.680Z,87.72
2023-05-25T00:27:35.659Z,87.50
2023-05-25T00:28:40.017Z,87.71
2023-05-25T00:29:43.712Z,87.35
2023-05-25T00:30:49.276Z,87.02
2023-05-25T00:31:56.012Z,86.72
2023-05-25T00:33:01.968Z,86.43
2023-05-25T00:34:05.679Z,86.13
2023-05-25T00:35:10.026Z,85.79
2023-05-25T00:36:13.723Z,85.76
2023-05-25T00:37:17.035Z,85.25
2023-05-25T00:38:20.736Z,85.05
2023-05-25T00:39:23.103Z,84.75
2023-05-25T00:40:28.070Z,85.15
2023-05-25T00:41:32.507Z,84.61
2023-05-25T00:42:36.668Z,85.07
2023-05-25T00:43:40.029Z,85.34
2023-05-25T00:44:42.611Z,85.47
2023-05-25T00:45:46.848Z,84.90
2023-05-25T00:46:53.045Z,85.28
2023-05-25T00:47:56.899Z,85.18
2023-05-25T00:49:00.593Z,85.17
2023-05-25T00:50:05.028Z,85.07
2023-05-25T00:51:10.469Z,84.76
2023-05-25T00:52:14.553Z,84.97
2023-05-25T00:53:19.939Z,85.76
2023-05-25T00:54:23.226Z,85.64
2023-05-25T00:55:30.113Z,85.49
2023-05-25T00:56:37.328Z,85.62
2023-05-25T00:57:42.086Z,86.07
2023-05-25T00:58:49.178Z,85.92
2023-05-25T00:59:55.392Z,85.66
2023-05-25T01:00:59.408Z,85.18
2023-05-25T01:03:26.155Z,84.37
2023-05-25T01:04:31.590Z,83.94
2023-05-25T01:05:36.606Z,83.38
2023-05-25T01:06:40.161Z,83.23
2023-05-25T01:07:44.554Z,82.96
2023-05-25T01:08:49.828Z,82.71
2023-05-25T01:09:55.237Z,82.92
2023-05-25T01:10:59.468Z,82.81
2023-05-25T01:12:02.970Z,82.21
2023-05-25T01:13:08.984Z,81.99
2023-05-25T01:14:13.524Z,82.18
2023-05-25T01:15:16.837Z,82.20
2023-05-25T01:16:21.637Z,81.92
2023-05-25T01:17:27.448Z,81.52
2023-05-25T01:18:30.900Z,81.58
2023-05-25T01:19:36.275Z,81.45
2023-05-25T01:20:39.835Z,81.41
2023-05-25T01:21:57.391Z,81.29
2023-05-25T01:23:03.346Z,81.19
2023-05-25T01:24:12.773Z,81.28
2023-05-25T01:25:18.966Z,81.31
2023-05-25T01:26:24.466Z,81.55
2023-05-25T01:27:35.201Z,81.59
2023-05-25T01:28:41.489Z,81.29
2023-05-25T01:29:46.390Z,81.76
2023-05-25T01:30:52.126Z,81.32
2023-05-25T01:32:01.357Z,81.25
2023-05-25T01:33:11.159Z,81.72
2023-05-25T01:34:16.798Z,83.05
2023-05-25T01:35:20.809Z,82.70
2023-05-25T01:36:24.626Z,82.84
2023-05-25T01:37:27.195Z,82.02
2023-05-25T01:38:30.488Z,81.94
2023-05-25T01:39:34.322Z,81.93
2023-05-25T01:40:37.916Z,82.09
2023-05-25T01:41:41.321Z,81.82
2023-05-25T01:42:43.885Z,81.43
2023-05-25T01:43:47.384Z,81.43
2023-05-25T01:44:50.693Z,81.66
2023-05-25T01:45:55.054Z,82.04
2023-05-25T01:47:01.564Z,82.41
2023-05-25T01:48:09.618Z,82.63
2023-05-25T01:49:24.128Z,83.11
2023-05-25T01:50:34.637Z,83.16
2023-05-25T01:51:49.248Z,83.22
2023-05-25T01:53:05.773Z,83.75
2023-05-25T01:54:20.657Z,84.93
2023-05-25T01:55:28.487Z,85.10
2023-05-25T01:56:33.205Z,84.93
2023-05-25T01:57:38.304Z,84.93
2023-05-25T01:58:42.746Z,84.96
2023-05-25T01:59:46.122Z,84.26
2023-05-25T02:00:50.170Z,84.07
2023-05-25T02:01:54.858Z,84.00
2023-05-25T02:02:59.004Z,83.74
2023-05-25T02:04:06.034Z,83.85
2023-05-25T02:05:10.135Z,83.52
2023-05-25T02:06:13.834Z,83.64
2023-05-25T02:07:17.757Z,83.84
2023-05-25T02:08:23.278Z,84.57
2023-05-25T02:09:26.853Z,84.59
2023-05-25T02:10:32.289Z,85.11
2023-05-25T02:11:35.953Z,85.87
2023-05-25T02:12:39.670Z,85.63
2023-05-25T02:13:43.083Z,85.43
2023-05-25T02:14:47.595Z,84.97
2023-05-25T02:15:51.014Z,84.55
2023-05-25T02:16:54.842Z,84.05
2023-05-25T02:17:57.641Z,83.08
2023-05-25T02:19:01.428Z,83.12
2023-05-25T02:20:09.662Z,83.33
2023-05-25T02:21:12.618Z,83.43
2023-05-25T02:22:18.627Z,84.28
2023-05-25T02:23:23.483Z,84.96
2023-05-25T02:24:26.179Z,85.61
2023-05-25T02:25:31.036Z,85.37
2023-05-25T02:26:34.533Z,85.61
2023-05-25T02:27:37.863Z,85.80
2023-05-25T02:28:42.596Z,85.56
2023-05-25T02:29:47.662Z,86.09
2023-05-25T02:30:51.360Z,86.33
2023-05-25T02:31:56.663Z,86.81
2023-05-25T02:33:02.869Z,87.11
2023-05-25T02:34:06.531Z,87.66
2023-05-25T02:35:11.932Z,88.19
2023-05-25T02:36:17.360Z,87.95
2023-05-25T02:37:21.786Z,87.61
2023-05-25T02:38:33.452Z,87.58
2023-05-25T02:39:37.170Z,87.39
2023-05-25T02:40:40.868Z,87.66
2023-05-25T02:41:43.236Z,87.23
2023-05-25T02:42:46.532Z,87.93
2023-05-25T02:43:49.523Z,87.60
2023-05-25T02:44:53.020Z,87.89
2023-05-25T02:45:55.922Z,87.83
2023-05-25T02:47:00.009Z,87.43
2023-05-25T02:48:04.307Z,86.93
2023-05-25T02:49:08.398Z,86.73
2023-05-25T02:50:13.198Z,87.00
2023-05-25T02:51:18.488Z,87.69
2023-05-25T02:52:24.770Z,87.51
2023-05-25T02:53:28.789Z,87.99
2023-05-25T02:54:33.229Z,88.46
2023-05-25T02:55:38.972Z,89.26
2023-05-25T02:56:43.272Z,89.96
2023-05-25T02:57:46.730Z,89.00
2023-05-25T02:58:51.943Z,88.49
2023-05-25T02:59:58.181Z,88.25
2023-05-25T03:01:00.728Z,88.20
2023-05-25T03:02:04.669Z,88.30
2023-05-25T03:03:09.052Z,88.86
2023-05-25T03:04:11.613Z,88.33
2023-05-25T03:05:17.152Z,88.39
2023-05-25T03:06:23.805Z,87.55
2023-05-25T03:07:29.183Z,86.63
2023-05-25T03:08:33.953Z,86.16
2023-05-25T03:09:37.550Z,86.14
2023-05-25T03:10:40.925Z,85.63
2023-05-25T03:11:44.648Z,85.11
2023-05-25T03:12:49.415Z,84.42
2023-05-25T03:13:53.041Z,83.92
2023-05-25T03:15:00.583Z,83.39
2023-05-25T03:16:04.401Z,82.49
2023-05-25T03:17:07.998Z,82.16
2023-05-25T03:18:11.194Z,82.23
2023-05-25T03:19:15.473Z,82.33
2023-05-25T03:20:18.974Z,81.99
2023-05-25T03:21:24.307Z,82.24
2023-05-25T03:22:26.816Z,82.43
2023-05-25T03:23:31.518Z,82.17
2023-05-25T03:24:35.382Z,82.59
2023-05-25T03:25:39.837Z,83.07
2023-05-25T03:26:43.553Z,82.94
2023-05-25T03:27:49.675Z,82.28
2023-05-25T03:28:53.801Z,82.76
2023-05-25T03:29:57.925Z,82.08
2023-05-25T03:31:02.167Z,80.74
2023-05-25T03:32:06.644Z,80.49
2023-05-25T03:33:09.677Z,80.02
2023-05-25T03:34:15.083Z,80.84
2023-05-25T03:35:18.701Z,81.14
2023-05-25T03:36:22.999Z,81.21
2023-05-25T03:37:26.753Z,81.35
2023-05-25T03:38:29.219Z,80.92
2023-05-25T03:39:34.761Z,80.42
2023-05-25T03:40:38.521Z,80.13
2023-05-25T03:41:47.283Z,80.04
2023-05-25T03:42:52.210Z,79.41
2023-05-25T03:43:54.466Z,78.95
2023-05-25T03:44:57.448Z,78.89
2023-05-25T03:46:03.766Z,78.90
2023-05-25T03:47:08.217Z,79.15
2023-05-25T03:48:11.725Z,79.60
2023-05-25T03:49:16.373Z,79.79
2023-05-25T03:50:19.886Z,79.21
2023-05-25T03:51:23.485Z,78.87
2023-05-25T03:52:26.371Z,78.45
2023-05-25T03:53:29.877Z,78.85
2023-05-25T03:54:38.082Z,78.22
2023-05-25T03:55:43.826Z,77.91
2023-05-25T03:56:48.327Z,78.12
2023-05-25T03:57:51.515Z,78.25
2023-05-25T03:58:54.289Z,78.47
2023-05-25T04:00:00.877Z,78.12
2023-05-25T04:01:05.484Z,78.28
2023-05-25T04:02:09.955Z,78.30
2023-05-25T04:03:13.625Z,77.47
2023-05-25T04:04:17.374Z,77.44
2023-05-25T04:05:20.436Z,77.95
2023-05-25T04:06:28.326Z,79.43
2023-05-25T04:07:31.832Z,78.16
2023-05-25T04:08:35.769Z,77.41
2023-05-25T04:09:42.454Z,76.49
2023-05-25T04:10:47.209Z,75.61
2023-05-25T04:11:50.875Z,76.18
2023-05-25T04:12:57.406Z,76.06
2023-05-25T04:14:01.852Z,75.16
2023-05-25T04:15:09.942Z,74.47
2023-05-25T04:16:17.878Z,74.28
2023-05-25T04:17:24.442Z,73.45
2023-05-25T04:18:27.779Z,73.24
2023-05-25T04:19:32.641Z,73.09
2023-05-25T04:20:36.662Z,72.36
2023-05-25T04:21:41.212Z,71.11
2023-05-25T04:22:45.912Z,70.45
2023-05-25T04:23:50.956Z,69.76
2023-05-25T04:24:53.709Z,69.04
2023-05-25T04:25:59.379Z,68.07
2023-05-25T04:27:03.226Z,67.18
2023-05-25T04:28:08.531Z,67.20
2023-05-25T04:29:26.364Z,66.68
2023-05-25T04:30:37.285Z,66.91
2023-05-25T04:31:47.898Z,67.40
2023-05-25T04:32:53.482Z,67.88
2023-05-25T04:34:05.398Z,67.64
2023-05-25T04:35:14.244Z,68.23
2023-05-25T04:36:21.612Z,68.50
2023-05-25T04:37:29.479Z,68.74
2023-05-25T04:38:37.527Z,68.96
2023-05-25T04:39:41.934Z,68.76
2023-05-25T04:40:47.199Z,67.83
2023-05-25T04:41:52.495Z,66.76
2023-05-25T04:42:56.535Z,65.36
2023-05-25T04:44:09.129Z,65.35
2023-05-25T04:45:05.216Z,63.19
2023-05-25T04:46:09.578Z,58.24
2023-05-25T04:47:13.266Z,55.10
2023-05-25T04:48:17.604Z,50.46
2023-05-25T04:49:21.969Z,45.38
2023-05-25T04:50:24.509Z,41.94
2023-05-25T04:51:29.739Z,39.48
2023-05-25T04:52:34.120Z,37.87
2023-05-25T04:53:38.212Z,36.42
2023-05-25T04:54:42.747Z,35.00
2023-05-25T04:55:48.928Z,34.22
2023-05-25T04:56:53.904Z,34.11
2023-05-25T04:57:58.446Z,33.37
2023-05-25T04:59:02.056Z,32.52
2023-05-25T05:00:07.948Z,31.88
2023-05-25T05:01:11.917Z,31.46
2023-05-25T05:02:15.596Z,31.19
2023-05-25T05:03:20.799Z,31.41
2023-05-25T05:04:23.982Z,30.56
2023-05-25T05:05:27.344Z,30.59
2023-05-25T05:06:33.900Z,31.79
2023-05-25T05:07:36.774Z,31.73
2023-05-25T05:08:42.468Z,30.50
2023-05-25T05:09:46.511Z,30.05
2023-05-25T05:10:50.626Z,29.18
2023-05-25T05:11:54.540Z,31.37
2023-05-25T05:12:59.417Z,33.59
2023-05-25T05:14:04.383Z,34.68
2023-05-25T05:15:08.937Z,34.08
2023-05-25T05:16:12.907Z,32.46
2023-05-25T05:17:16.481Z,33.13
2023-05-25T05:18:24.897Z,33.69
2023-05-25T05:19:29.020Z,33.25
2023-05-25T05:20:32.577Z,32.90
2023-05-25T05:21:43.460Z,33.24
2023-05-25T05:22:46.990Z,33.43
2023-05-25T05:23:50.555Z,32.80
2023-05-25T05:24:54.597Z,32.53
2023-05-25T05:25:59.247Z,32.17
2023-05-25T05:27:04.930Z,31.24
2023-05-25T05:28:16.693Z,30.45
2023-05-25T05:29:22.438Z,30.64
2023-05-25T05:30:26.213Z,30.61
2023-05-25T05:31:29.285Z,30.64
2023-05-25T05:32:33.018Z,31.15
2023-05-25T05:33:37.357Z,30.95
2023-05-25T05:34:42.782Z,30.69
2023-05-25T05:35:48.053Z,30.54
2023-05-25T05:36:58.235Z,31.07
2023-05-25T05:37:57.635Z,31.94
2023-05-25T05:39:00.466Z,32.68
2023-05-25T05:40:06.537Z,32.56
2023-05-25T05:41:14.393Z,31.68
2023-05-25T05:42:19.075Z,29.87
2023-05-25T05:43:23.417Z,27.71
2023-05-25T05:44:29.329Z,26.31
2023-05-25T05:45:32.312Z,26.29
2023-05-25T05:46:36.428Z,26.00
2023-05-25T05:47:42.732Z,25.54
2023-05-25T05:48:47.104Z,25.10
2023-05-25T05:49:51.753Z,24.44
2023-05-25T05:50:56.398Z,24.28
2023-05-25T05:52:00.337Z,24.25
2023-05-25T05:53:04.287Z,24.34
2023-05-25T05:54:09.998Z,24.60
2023-05-25T05:55:13.998Z,24.17
2023-05-25T05:56:20.906Z,25.19
2023-05-25T05:57:25.065Z,23.85
2023-05-25T05:58:28.821Z,23.43
2023-05-25T05:59:35.051Z,22.75
2023-05-25T06:00:39.684Z,22.62
2023-05-25T06:01:43.505Z,22.68
2023-05-25T06:02:47.187Z,23.16
2023-05-25T06:03:56.330Z,23.55
2023-05-25T06:04:59.935Z,23.30
2023-05-25T06:06:04.515Z,22.78
2023-05-25T06:07:09.978Z,22.80
2023-05-25T06:08:16.613Z,23.49
2023-05-25T06:09:21.558Z,23.54
2023-05-25T06:10:24.935Z,23.62
2023-05-25T06:11:29.329Z,24.10
2023-05-25T06:12:33.245Z,23.27
2023-05-25T06:13:36.775Z,22.58
2023-05-25T06:14:40.955Z,23.10
2023-05-25T06:15:43.790Z,22.88
2023-05-25T06:16:49.508Z,22.19
2023-05-25T06:17:55.215Z,23.52
2023-05-25T06:18:58.234Z,25.02
2023-05-25T06:20:02.426Z,26.45
2023-05-25T06:21:06.974Z,26.83
2023-05-25T06:22:10.637Z,28.38
2023-05-25T06:23:14.237Z,28.90
2023-05-25T06:24:17.672Z,28.89
2023-05-25T06:25:21.383Z,30.33
2023-05-25T06:26:28.641Z,30.93
2023-05-25T06:27:32.343Z,30.13
2023-05-25T06:28:39.074Z,29.76
2023-05-25T06:29:43.190Z,28.15
2023-05-25T06:30:47.674Z,27.59
2023-05-25T06:31:51.117Z,26.85
2023-05-25T06:32:55.105Z,27.04
2023-05-25T06:33:58.809Z,27.80
2023-05-25T06:35:03.044Z,28.83
2023-05-25T06:36:07.559Z,29.53
2023-05-25T06:37:11.510Z,30.17
2023-05-25T06:38:14.072Z,30.12
2023-05-25T06:39:18.841Z,29.36
2023-05-25T06:40:22.327Z,29.19
2023-05-25T06:41:25.938Z,29.24
2023-05-25T06:42:28.928Z,29.46
2023-05-25T06:43:32.542Z,27.12
2023-05-25T06:44:37.189Z,25.35
2023-05-25T06:45:42.515Z,24.29
2023-05-25T06:46:46.533Z,24.87
2023-05-25T06:47:51.857Z,25.63
2023-05-25T06:48:57.477Z,26.55
2023-05-25T06:50:02.751Z,27.34
2023-05-25T06:51:06.679Z,28.07
2023-05-25T06:52:10.072Z,29.14
2023-05-25T06:53:13.068Z,29.93
2023-05-25T06:54:16.407Z,30.52
2023-05-25T06:55:21.118Z,30.26
2023-05-25T06:56:25.398Z,29.52
2023-05-25T06:57:29.054Z,29.22
2023-05-25T06:58:32.175Z,29.32
2023-05-25T06:59:37.106Z,28.96
2023-05-25T07:00:44.825Z,27.67
2023-05-25T07:01:49.320Z,25.71
2023-05-25T07:02:52.817Z,25.24
2023-05-25T07:03:56.993Z,25.26
2023-05-25T07:04:59.893Z,25.08
2023-05-25T07:06:03.377Z,24.36
2023-05-25T07:07:06.185Z,24.56
2023-05-25T07:08:10.737Z,25.33
2023-05-25T07:09:15.996Z,25.16
2023-05-25T07:10:20.090Z,24.02
2023-05-25T07:11:23.410Z,23.50
2023-05-25T07:12:27.854Z,23.36
2023-05-25T07:13:30.735Z,22.85
2023-05-25T07:14:39.869Z,22.92
2023-05-25T07:15:42.301Z,23.27
2023-05-25T07:16:46.256Z,23.20
2023-05-25T07:17:51.146Z,22.53
2023-05-25T07:18:54.496Z,22.43
2023-05-25T07:19:57.120Z,22.09
2023-05-25T07:21:00.072Z,22.44
2023-05-25T07:22:03.891Z,22.56
2023-05-25T07:23:08.334Z,22.41
2023-05-25T07:24:11.578Z,22.13
2023-05-25T07:25:17.660Z,22.79
2023-05-25T07:26:24.326Z,22.69
2023-05-25T07:27:27.625Z,22.48
2023-05-25T07:28:31.194Z,22.86
2023-05-25T07:29:34.503Z,22.67
2023-05-25T07:30:38.098Z,23.59
2023-05-25T07:31:42.084Z,23.05
2023-05-25T07:32:46.384Z,23.33
2023-05-25T07:33:50.265Z,23.73
2023-05-25T07:34:53.785Z,23.52
2023-05-25T07:35:57.177Z,22.92
2023-05-25T07:36:59.750Z,22.99
2023-05-25T07:38:04.950Z,23.27
2023-05-25T07:39:13.820Z,23.96
2023-05-25T07:40:17.157Z,25.00
2023-05-25T07:41:20.605Z,25.30
2023-05-25T07:42:24.293Z,25.20
2023-05-25T07:43:28.194Z,25.26
2023-05-25T07:44:43.665Z,25.17
2023-05-25T07:45:46.821Z,24.87
2023-05-25T07:46:51.153Z,24.50
2023-05-25T07:47:56.606Z,25.02
2023-05-25T07:49:02.002Z,24.86
2023-05-25T07:50:05.744Z,24.84
2023-05-25T07:51:10.047Z,25.03
2023-05-25T07:52:12.652Z,25.22
2023-05-25T07:53:21.360Z,26.13
2023-05-25T07:54:24.763Z,26.21
2023-05-25T07:55:31.410Z,26.46
2023-05-25T07:56:34.908Z,26.75
2023-05-25T07:57:37.575Z,26.13
2023-05-25T07:58:40.954Z,26.02
2023-05-25T07:59:45.093Z,26.40
2023-05-25T08:00:49.862Z,26.50
2023-05-25T08:01:52.255Z,26.91
2023-05-25T08:02:57.206Z,26.79
2023-05-25T08:04:00.905Z,26.37
2023-05-25T08:05:06.485Z,25.38
2023-05-25T08:06:10.776Z,25.63
2023-05-25T08:07:17.376Z,25.45
2023-05-25T08:08:23.968Z,26.17
2023-05-25T08:09:29.808Z,26.34
2023-05-25T08:10:35.110Z,26.69
2023-05-25T08:11:37.969Z,27.12
2023-05-25T08:12:49.528Z,26.60
2023-05-25T08:13:47.795Z,26.96
2023-05-25T08:14:51.497Z,26.57
2023-05-25T08:15:55.120Z,27.09
2023-05-25T08:16:58.165Z,27.70
2023-05-25T08:18:01.946Z,27.19
2023-05-25T08:19:06.358Z,26.73
2023-05-25T08:20:12.201Z,26.96
2023-05-25T08:21:17.029Z,27.61
2023-05-25T08:22:23.644Z,26.62
2023-05-25T08:23:27.275Z,26.71
2023-05-25T08:24:30.780Z,26.82
2023-05-25T08:25:34.493Z,26.46
2023-05-25T08:26:54.482Z,26.23
2023-05-25T08:27:50.056Z,25.71
2023-05-25T08:28:54.429Z,26.53
2023-05-25T08:29:57.919Z,27.23
2023-05-25T08:31:01.243Z,27.72
2023-05-25T08:32:04.929Z,27.61
2023-05-25T08:33:07.455Z,27.18
2023-05-25T08:34:10.990Z,27.08
2023-05-25T08:35:16.283Z,27.13
2023-05-25T08:36:19.983Z,27.30
2023-05-25T08:37:25.255Z,26.69
2023-05-25T08:38:28.982Z,26.79
2023-05-25T08:39:34.817Z,26.55
2023-05-25T08:40:46.634Z,26.82
2023-05-25T08:41:50.936Z,27.39
2023-05-25T08:42:54.217Z,27.30
2023-05-25T08:44:01.462Z,26.65
2023-05-25T08:45:14.339Z,26.34
2023-05-25T08:46:20.266Z,26.51
2023-05-25T08:47:24.180Z,25.80
2023-05-25T08:48:40.197Z,26.13
2023-05-25T08:49:39.614Z,26.27
2023-05-25T08:50:44.460Z,27.08
2023-05-25T08:51:53.704Z,26.79
2023-05-25T08:52:58.859Z,26.65
2023-05-25T08:54:18.915Z,26.73
2023-05-25T08:55:25.441Z,26.38
2023-05-25T08:56:30.118Z,27.44
2023-05-25T08:57:40.115Z,29.04
2023-05-25T08:58:47.523Z,30.78
2023-05-25T08:59:54.636Z,31.60
2023-05-25T09:01:00.960Z,31.79
2023-05-25T09:03:23.851Z,31.06
2023-05-25T09:04:31.381Z,31.37
2023-05-25T09:05:40.202Z,31.26
2023-05-25T09:06:54.206Z,31.14
2023-05-25T09:07:53.487Z,31.16
2023-05-25T09:08:56.851Z,30.83
2023-05-25T09:10:02.432Z,28.97
2023-05-25T09:11:07.686Z,28.01
2023-05-25T09:12:13.658Z,27.41
2023-05-25T09:13:21.961Z,27.18
2023-05-25T09:14:23.820Z,27.86
2023-05-25T09:15:28.634Z,28.07
2023-05-25T09:16:33.721Z,28.70
2023-05-25T09:17:38.301Z,28.86
2023-05-25T09:18:42.269Z,28.39
2023-05-25T09:19:51.068Z,27.96
2023-05-25T09:20:56.647Z,27.81
2023-05-25T09:23:06.555Z,26.99
2023-05-25T09:24:12.125Z,27.35
2023-05-25T09:25:21.556Z,28.21
2023-05-25T09:26:24.980Z,28.60
2023-05-25T09:27:28.489Z,29.62
2023-05-25T09:28:35.136Z,30.30
2023-05-25T09:29:38.338Z,31.36
2023-05-25T09:30:43.190Z,31.95
2023-05-25T09:31:48.085Z,32.54
2023-05-25T09:32:53.664Z,33.21
2023-05-25T09:34:00.517Z,33.91
2023-05-25T09:35:06.084Z,32.23
2023-05-25T09:36:10.252Z,29.44
2023-05-25T09:37:14.982Z,29.25
2023-05-25T09:38:19.218Z,30.29
2023-05-25T09:39:25.844Z,33.27
2023-05-25T09:40:29.245Z,36.65
2023-05-25T09:41:32.751Z,39.63
2023-05-25T09:42:36.629Z,39.06
2023-05-25T09:43:48.924Z,39.90
2023-05-25T09:44:48.805Z,40.81
2023-05-25T09:45:57.369Z,43.18
2023-05-25T09:47:04.102Z,44.29
2023-05-25T09:48:09.079Z,44.38
2023-05-25T09:49:13.270Z,46.84
2023-05-25T09:50:19.273Z,47.94
2023-05-25T09:51:23.697Z,50.62
2023-05-25T09:52:27.752Z,52.70
2023-05-25T09:53:32.694Z,53.23
2023-05-25T09:54:40.188Z,56.62
2023-05-25T09:55:53.930Z,58.10
2023-05-25T09:56:54.198Z,60.44
2023-05-25T09:58:01.384Z,63.51
2023-05-25T09:59:08.914Z,62.68
2023-05-25T10:00:16.304Z,66.58
2023-05-25T10:01:21.168Z,64.49
2023-05-25T10:02:25.561Z,63.92
2023-05-25T10:03:29.111Z,61.40
2023-05-25T10:04:32.558Z,61.06
2023-05-25T10:05:37.992Z,65.62
2023-05-25T10:06:43.632Z,73.90
2023-05-25T10:07:47.735Z,66.45
2023-05-25T10:08:50.925Z,88.64
2023-05-25T10:09:55.589Z,100.00
2023-05-25T10:11:00.330Z,97.84
2023-05-25T10:12:04.705Z,100.00
2023-05-25T10:13:11.539Z,100.00
2023-05-25T10:14:18.160Z,100.00
2023-05-25T10:15:21.269Z,99.61
2023-05-25T10:16:26.280Z,100.00
2023-05-25T10:17:36.233Z,100.00
2023-05-25T10:18:41.587Z,100.00
2023-05-25T10:19:48.533Z,100.00
2023-05-25T10:20:54.131Z,100.00
2023-05-25T10:22:10.377Z,100.00
2023-05-25T10:23:15.622Z,100.00
2023-05-25T10:24:30.121Z,100.00
2023-05-25T10:25:35.204Z,100.00
2023-05-25T10:26:39.446Z,100.00
2023-05-25T10:27:48.280Z,100.00
2023-05-25T10:28:53.132Z,94.36
2023-05-25T10:29:56.212Z,84.19
2023-05-25T10:31:00.330Z,88.79
2023-05-25T10:32:04.008Z,86.26
2023-05-25T10:33:09.127Z,78.41
2023-05-25T10:34:12.672Z,81.57
2023-05-25T10:35:16.878Z,86.68
2023-05-25T10:36:22.792Z,87.93
2023-05-25T10:37:27.946Z,76.35
2023-05-25T10:38:42.217Z,82.72
2023-05-25T10:39:46.864Z,83.33
2023-05-25T10:40:52.039Z,88.11
2023-05-25T10:41:55.868Z,84.73
2023-05-25T10:42:59.005Z,81.87
2023-05-25T10:44:02.985Z,79.89
2023-05-25T10:45:07.754Z,86.08
2023-05-25T10:46:13.812Z,85.09
2023-05-25T10:47:17.692Z,84.83
2023-05-25T10:48:19.999Z,84.05
2023-05-25T10:49:28.656Z,82.31
2023-05-25T10:50:36.844Z,78.89
2023-05-25T10:51:43.250Z,78.20
2023-05-25T10:52:46.757Z,78.89
2023-05-25T10:53:51.447Z,78.29
2023-05-25T10:55:01.524Z,84.57
2023-05-25T10:56:06.128Z,77.02
2023-05-25T10:57:19.610Z,78.94
2023-05-25T10:58:23.660Z,83.35
2023-05-25T10:59:28.615Z,80.48
2023-05-25T11:00:34.173Z,89.52
2023-05-25T11:01:43.180Z,93.13
2023-05-25T11:02:52.215Z,99.06
2023-05-25T11:04:00.215Z,100.00
2023-05-25T11:05:23.436Z,97.00
2023-05-25T11:06:44.742Z,92.84
2023-05-25T11:07:54.152Z,87.50
2023-05-25T11:09:08.265Z,100.00
2023-05-25T11:10:13.928Z,100.00
2023-05-25T11:11:19.163Z,100.00
2023-05-25T11:12:25.725Z,100.00
2023-05-25T11:13:33.942Z,100.00
2023-05-25T11:14:40.230Z,100.00
2023-05-25T11:15:43.936Z,100.00
2023-05-25T11:16:49.294Z,100.00
2023-05-25T11:18:00.145Z,100.00
2023-05-25T11:19:04.288Z,100.00
2023-05-25T11:20:09.649Z,100.00
2023-05-25T11:21:18.186Z,100.00
2023-05-25T11:22:22.866Z,100.00
2023-05-25T11:23:27.835Z,100.00
2023-05-25T11:24:33.343Z,100.00
2023-05-25T11:25:39.981Z,98.50
2023-05-25T11:26:53.361Z,97.55
2023-05-25T11:27:57.706Z,98.67
2023-05-25T11:29:02.678Z,98.28
2023-05-25T11:30:07.503Z,100.00
2023-05-25T11:31:13.070Z,100.00
2023-05-25T11:32:19.056Z,100.00
2023-05-25T11:33:23.165Z,100.00
2023-05-25T11:34:26.146Z,91.83
2023-05-25T11:35:30.483Z,100.00
2023-05-25T11:36:35.659Z,100.00
2023-05-25T11:37:40.856Z,100.00
2023-05-25T11:38:53.160Z,100.00
2023-05-25T11:39:55.063Z,100.00
2023-05-25T11:40:58.569Z,100.00
2023-05-25T11:42:07.393Z,100.00
2023-05-25T11:43:13.485Z,100.00
2023-05-25T11:44:18.064Z,100.00
2023-05-25T11:45:25.223Z,99.20
2023-05-25T11:46:29.335Z,97.51
2023-05-25T11:47:34.598Z,98.21
2023-05-25T11:48:37.095Z,100.00
2023-05-25T11:49:46.736Z,100.00
2023-05-25T11:50:53.197Z,100.00
2023-05-25T11:51:58.257Z,100.00
2023-05-25T11:53:03.129Z,100.00
2023-05-25T11:54:05.899Z,100.00
2023-05-25T11:55:16.794Z,100.00
2023-05-25T11:56:33.613Z,100.00
2023-05-25T11:57:28.109Z,97.52
2023-05-25T11:58:32.601Z,98.17
2023-05-25T11:59:37.597Z,100.00
2023-05-25T12:00:41.862Z,100.00
2023-05-25T12:01:47.874Z,100.00
2023-05-25T12:02:51.837Z,100.00
2023-05-25T12:03:59.726Z,100.00
2023-05-25T12:05:02.789Z,99.00
2023-05-25T12:06:06.643Z,100.00
2023-05-25T12:07:10.626Z,100.00
2023-05-25T12:08:18.733Z,100.00
2023-05-25T12:09:22.185Z,100.00
2023-05-25T12:10:25.655Z,100.00
2023-05-25T12:11:30.513Z,100.00
2023-05-25T12:12:53.359Z,100.00
2023-05-25T12:13:57.162Z,100.00
2023-05-25T12:15:00.635Z,100.00
2023-05-25T12:16:04.362Z,100.00
2023-05-25T12:17:08.088Z,99.32
2023-05-25T12:18:11.630Z,100.00
2023-05-25T12:19:15.600Z,100.00
2023-05-25T12:20:19.615Z,100.00
2023-05-25T12:21:24.555Z,100.00
2023-05-25T12:22:27.288Z,99.07
2023-05-25T12:23:30.874Z,100.00
2023-05-25T12:24:35.943Z,100.00
2023-05-25T12:25:50.414Z,98.87
2023-05-25T12:26:50.894Z,92.66
2023-05-25T12:28:12.469Z,94.43
2023-05-25T12:29:17.179Z,93.33
2023-05-25T12:30:22.607Z,91.10
2023-05-25T12:31:28.257Z,96.67
2023-05-25T12:32:34.349Z,92.78
2023-05-25T12:33:37.019Z,93.85
2023-05-25T12:34:41.206Z,94.26
2023-05-25T12:35:47.025Z,90.70
2023-05-25T12:36:54.608Z,89.82
2023-05-25T12:38:13.288Z,94.44
2023-05-25T12:39:17.615Z,92.12
2023-05-25T12:40:25.291Z,86.00
2023-05-25T12:41:28.742Z,87.73
2023-05-25T12:42:32.799Z,93.73
2023-05-25T12:43:40.996Z,89.04
2023-05-25T12:44:45.590Z,84.71
2023-05-25T12:45:48.455Z,85.28
2023-05-25T12:46:51.971Z,86.72
2023-05-25T12:47:56.740Z,89.27
2023-05-25T12:49:07.446Z,83.37
2023-05-25T12:50:12.476Z,83.74
2023-05-25T12:51:15.997Z,80.42
2023-05-25T12:52:38.250Z,81.34
2023-05-25T12:53:51.090Z,82.97
2023-05-25T12:54:55.332Z,85.18
2023-05-25T12:56:03.239Z,84.64
2023-05-25T12:57:07.703Z,79.81
2023-05-25T12:58:12.959Z,84.60
2023-05-25T12:59:17.716Z,80.28
2023-05-25T13:00:22.562Z,75.16
2023-05-25T13:01:27.897Z,76.56
2023-05-25T13:02:31.685Z,77.41
2023-05-25T13:03:44.511Z,82.28
2023-05-25T13:04:47.042Z,76.21
2023-05-25T13:06:56.677Z,79.26
2023-05-25T13:08:00.691Z,76.22
2023-05-25T13:09:05.340Z,76.05
2023-05-25T13:10:09.452Z,75.66
2023-05-25T13:11:12.981Z,75.43
2023-05-25T13:12:16.246Z,75.85
2023-05-25T13:13:20.401Z,73.38
2023-05-25T13:14:25.504Z,72.88
2023-05-25T13:15:27.920Z,74.01
2023-05-25T13:16:39.485Z,77.27
2023-05-25T13:17:44.473Z,76.47
2023-05-25T13:18:48.912Z,67.15
2023-05-25T13:19:52.405Z,66.74
2023-05-25T13:20:57.126Z,67.93
2023-05-25T13:22:04.160Z,68.68
2023-05-25T13:23:09.412Z,67.70
2023-05-25T13:24:17.530Z,65.83
2023-05-25T13:25:23.493Z,68.31
2023-05-25T13:26:25.792Z,71.98
2023-05-25T13:27:28.326Z,73.60
2023-05-25T13:28:31.718Z,73.18
2023-05-25T13:29:33.967Z,70.11
2023-05-25T13:30:36.871Z,70.32
2023-05-25T13:31:40.079Z,70.74
2023-05-25T13:32:49.514Z,70.13
2023-05-25T13:35:16.377Z,68.27
2023-05-25T13:36:19.817Z,73.00
2023-05-25T13:37:23.477Z,70.01
2023-05-25T13:38:27.517Z,70.02
2023-05-25T13:39:35.058Z,68.27
2023-05-25T13:40:38.358Z,66.93
2023-05-25T13:41:41.685Z,66.76
2023-05-25T13:42:44.144Z,66.81
2023-05-25T13:43:48.370Z,67.77
2023-05-25T13:44:53.234Z,70.74
2023-05-25T13:45:56.332Z,69.72
2023-05-25T13:46:59.823Z,69.61
2023-05-25T13:48:05.278Z,69.39
2023-05-25T13:49:09.029Z,67.87
2023-05-25T13:50:12.651Z,66.90
2023-05-25T13:51:17.215Z,66.92
2023-05-25T13:52:19.533Z,66.52
2023-05-25T13:53:23.923Z,66.07
2023-05-25T13:54:28.309Z,65.56
2023-05-25T13:55:31.318Z,64.60
2023-05-25T13:56:34.703Z,65.25
2023-05-25T13:57:39.676Z,66.47
2023-05-25T13:58:43.085Z,65.78
2023-05-25T13:59:46.635Z,64.57
2023-05-25T14:00:51.690Z,62.97
2023-05-25T14:01:56.245Z,67.62
2023-05-25T14:02:58.845Z,64.47
2023-05-25T14:04:05.493Z,63.75